Time;durP1;ratioP1;P1;durP2;ratioP2;P2;SDS_P1;SDS_P2;PMS_P1;PMS_P2;Temp;Humidity;BMP_temperature;BMP_pressure;BME280_temperature;BME280_humidity;BME280_pressure;Samples;Min_cycle;Max_cycle;Signal;HPM_P1;HPM_P2
2023/02/27 00:14:04;;;;;;;16.80;7.40;;;;;;;2.87;58.30;100958.28;4990286;28;97781;-84
2023/02/27 00:20:13;;;;;;;13.27;6.10;;;;;;;2.41;58.25;100893.09;4931126;28;98342;-86
2023/02/27 00:22:52;;;;;;;14.97;5.73;;;;;;;3.00;58.46;100985.19;4915647;28;97915;-84
2023/02/27 00:25:21;;;;;;;16.63;6.57;;;;;;;2.51;58.09;100896.66;4947908;28;96832;-84
2023/02/27 00:27:46;;;;;;;12.53;5.80;;;;;;;2.88;57.62;100962.59;4970044;28;97255;-85
2023/02/27 00:30:14;;;;;;;13.67;6.50;;;;;;;3.05;58.05;100983.47;4970920;28;100849;-85
2023/02/27 00:32:40;;;;;;;14.33;6.40;;;;;;;2.99;58.02;100992.09;4987739;28;100323;-85
2023/02/27 00:35:08;;;;;;;14.30;6.13;;;;;;;2.85;58.21;100966.06;4971105;28;97736;-84
2023/02/27 00:37:34;;;;;;;12.40;5.50;;;;;;;2.81;58.27;100966.00;4973070;28;97397;-83
2023/02/27 00:40:00;;;;;;;12.67;6.03;;;;;;;2.91;58.26;100991.19;4948894;28;101661;-84
2023/02/27 00:42:27;;;;;;;19.17;7.10;;;;;;;2.93;58.28;100992.91;4959154;28;101659;-85
2023/02/27 00:44:53;;;;;;;14.20;6.47;;;;;;;2.89;58.25;100978.19;4972942;28;96968;-85
2023/02/27 00:47:19;;;;;;;13.33;6.07;;;;;;;2.95;58.58;100986.00;4971282;28;97899;-85
2023/02/27 00:49:44;;;;;;;12.90;5.97;;;;;;;2.99;58.18;100981.72;4970332;28;98060;-85
2023/02/27 00:52:10;;;;;;;14.67;6.80;;;;;;;2.94;58.12;100989.47;4967107;28;101284;-85
2023/02/27 00:54:36;;;;;;;14.40;5.47;;;;;;;2.95;57.75;100988.59;4971461;28;97212;-87
2023/02/27 00:57:01;;;;;;;12.83;5.30;;;;;;;2.90;57.71;100985.09;4952476;28;97907;-83
2023/02/27 00:59:27;;;;;;;14.27;5.70;;;;;;;2.94;57.91;100986.88;4972249;28;101850;-82
2023/02/27 01:01:53;;;;;;;16.20;6.43;;;;;;;2.93;57.98;100981.66;4970599;28;101385;-83
2023/02/27 01:04:18;;;;;;;11.20;5.40;;;;;;;2.76;57.86;100945.22;4967427;28;97543;-83
2023/02/27 01:06:44;;;;;;;16.60;6.07;;;;;;;2.93;58.07;100969.56;4967746;28;97261;-83
2023/02/27 01:09:09;;;;;;;12.87;6.27;;;;;;;2.74;57.96;100953.88;4973051;28;101591;-83
2023/02/27 01:11:36;;;;;;;15.50;5.57;;;;;;;2.80;57.90;100961.69;4972420;28;101463;-83
2023/02/27 01:14:02;;;;;;;13.13;5.77;;;;;;;2.67;58.25;100946.00;4991891;28;96780;-84
2023/02/27 01:16:27;;;;;;;13.60;5.73;;;;;;;2.88;58.39;100973.88;4989319;28;97440;-83
2023/02/27 01:18:53;;;;;;;16.17;5.70;;;;;;;2.95;58.11;100978.22;4975548;28;101101;-83
2023/02/27 01:21:21;;;;;;;13.67;5.90;;;;;;;2.97;58.23;100975.66;4974314;28;101225;-83
2023/02/27 01:23:47;;;;;;;16.77;6.33;;;;;;;2.91;58.01;100973.03;5009164;28;97920;-83
2023/02/27 01:26:12;;;;;;;11.17;4.87;;;;;;;2.86;57.93;100972.97;4975072;28;96764;-83
2023/02/27 01:28:38;;;;;;;15.10;5.40;;;;;;;2.83;58.04;100959.13;4970525;28;101283;-83
2023/02/27 01:31:04;;;;;;;16.03;5.83;;;;;;;2.69;58.29;100938.25;4983528;28;101959;-83
2023/02/27 01:33:31;;;;;;;10.07;6.13;;;;;;;2.74;58.23;100946.97;4989433;28;97092;-83
2023/02/27 01:35:58;;;;;;;15.03;6.33;;;;;;;2.80;57.88;100977.25;5008687;28;97396;-83
2023/02/27 01:38:25;;;;;;;16.07;6.47;;;;;;;2.83;57.63;100974.69;4987482;28;101459;-84
2023/02/27 01:40:51;;;;;;;13.77;6.17;;;;;;;2.89;57.95;100983.38;4991483;28;101442;-83
2023/02/27 01:43:18;;;;;;;13.03;5.80;;;;;;;2.67;58.00;100945.16;4970973;28;97781;-84
2023/02/27 01:45:47;;;;;;;14.23;6.00;;;;;;;2.74;57.96;100967.69;4989537;28;96969;-83
2023/02/27 01:48:32;;;;;;;15.10;6.17;;;;;;;2.73;57.76;100960.75;4991553;28;100853;-83
2023/02/27 01:51:02;;;;;;;12.43;5.43;;;;;;;2.85;57.78;100988.50;4974319;28;101913;-83
2023/02/27 01:53:29;;;;;;;12.60;5.63;;;;;;;2.86;57.62;100990.25;4974905;28;97420;-84
2023/02/27 01:55:59;;;;;;;16.43;5.37;;;;;;;2.89;57.82;100990.28;4986909;28;97234;-83
2023/02/27 01:58:25;;;;;;;16.13;5.80;;;;;;;2.75;57.70;100978.94;4987753;28;101691;-83
2023/02/27 02:00:51;;;;;;;17.70;5.17;;;;;;;2.84;57.85;100994.56;4983387;28;102073;-81
2023/02/27 02:03:17;;;;;;;10.63;5.17;;;;;;;2.86;57.41;101001.50;4990223;28;98012;-82
2023/02/27 02:05:43;;;;;;;11.80;4.97;;;;;;;2.84;57.47;100998.03;5007938;28;97269;-83
2023/02/27 02:08:10;;;;;;;11.07;4.90;;;;;;;2.74;57.45;100985.84;4974804;28;101573;-85
2023/02/27 02:10:35;;;;;;;12.87;4.57;;;;;;;2.83;57.31;100995.44;4987974;28;101601;-85
2023/02/27 02:13:02;;;;;;;11.20;5.13;;;;;;;2.58;57.21;100955.44;4971507;28;96787;-84
2023/02/27 02:15:36;;;;;;;12.63;5.40;;;;;;;2.76;57.53;100984.13;4970744;28;97128;-83
2023/02/27 02:18:30;;;;;;;12.00;4.83;;;;;;;2.85;57.28;101002.38;4985141;28;99991;-83
2023/02/27 02:21:11;;;;;;;10.17;4.70;;;;;;;2.85;57.31;101002.38;4982528;28;101629;-83
2023/02/27 02:24:06;;;;;;;9.70;4.65;;;;;;;2.74;57.15;100985.84;4991371;28;97146;-82
2023/02/27 02:26:47;;;;;;;9.53;5.20;;;;;;;2.83;57.21;101000.63;4995954;28;96808;-83
2023/02/27 02:29:23;;;;;;;9.13;4.27;;;;;;;2.80;56.85;101009.22;5007471;28;101114;-83
2023/02/27 02:32:44;;;;;;;8.57;4.20;;;;;;;2.78;56.70;101004.88;4987704;28;101208;-85
2023/02/27 02:35:24;;;;;;;13.53;4.97;;;;;;;2.79;56.93;101004.88;4922116;28;97278;-85
2023/02/27 02:38:04;;;;;;;10.17;4.77;;;;;;;2.76;57.71;101011.78;4996342;28;97330;-85
2023/02/27 02:40:45;;;;;;;7.00;3.77;;;;;;;2.72;57.34;101014.34;4991383;28;101749;-85
2023/02/27 02:43:15;;;;;;;9.93;4.30;;;;;;;2.78;57.28;101010.06;4970859;28;101003;-84
2023/02/27 02:46:07;;;;;;;9.47;4.30;;;;;;;2.78;57.41;101020.44;4980418;28;96861;-85
2023/02/27 02:48:46;;;;;;;8.65;4.78;;;;;;;2.75;57.03;101017.81;5004056;28;96728;-84
2023/02/27 02:51:22;;;;;;;9.43;4.47;;;;;;;2.72;56.87;101013.47;4986641;28;101199;-84
2023/02/27 02:53:59;;;;;;;9.77;4.53;;;;;;;2.65;57.38;101004.78;4989452;28;101631;-85
2023/02/27 02:56:45;;;;;;;9.97;4.43;;;;;;;2.78;56.94;101025.63;4977723;28;97979;-85
2023/02/27 02:59:13;;;;;;;10.23;4.17;;;;;;;2.79;57.15;101036.00;4985579;28;97496;-84
2023/02/27 03:01:51;;;;;;;9.87;4.23;;;;;;;2.70;57.15;101028.13;4990709;28;99969;-85
2023/02/27 03:04:49;;;;;;;12.97;4.90;;;;;;;2.74;57.47;101035.13;4993769;28;101475;-84
2023/02/27 03:07:16;;;;;;;9.93;4.50;;;;;;;2.71;57.67;101040.28;4972351;28;97438;-83
2023/02/27 03:09:45;;;;;;;10.50;5.17;;;;;;;2.75;57.58;101041.16;4993292;28;97148;-83
2023/02/27 03:12:14;;;;;;;10.43;4.57;;;;;;;2.69;57.26;101031.59;4976850;28;102113;-82
2023/02/27 03:14:46;;;;;;;10.80;4.47;;;;;;;2.68;57.44;101040.25;4994604;28;97950;-82
2023/02/27 03:17:24;;;;;;;9.43;4.18;;;;;;;2.65;57.59;101048.84;4974449;28;97394;-83
2023/02/27 03:19:58;;;;;;;13.17;4.73;;;;;;;2.71;57.52;101061.00;4988220;28;97973;-83
2023/02/27 03:22:30;;;;;;;10.30;4.73;;;;;;;2.72;57.66;101054.97;5001603;28;101112;-83
2023/02/27 03:24:57;;;;;;;9.40;3.73;;;;;;;2.54;57.40;101032.31;4994578;28;98421;-82
2023/02/27 03:27:24;;;;;;;7.83;4.10;;;;;;;2.71;57.54;101059.28;4977712;28;96760;-85
2023/02/27 03:29:56;;;;;;;9.00;3.73;;;;;;;2.74;57.70;101055.84;4974046;28;98039;-84
2023/02/27 03:32:47;;;;;;;7.45;3.67;;;;;;;2.65;57.84;101058.38;5010156;28;99170;-84
2023/02/27 03:35:13;;;;;;;8.77;3.60;;;;;;;2.70;57.78;101062.72;4996168;28;100808;-85
2023/02/27 03:37:42;;;;;;;9.40;3.63;;;;;;;2.76;57.65;101061.03;4988641;28;96737;-85
2023/02/27 03:40:26;;;;;;;8.67;3.43;;;;;;;2.69;57.62;101057.53;4989197;28;96881;-87
2023/02/27 03:42:55;;;;;;;8.57;3.90;;;;;;;2.66;57.82;101057.50;4974132;28;100493;-83
2023/02/27 03:45:38;;;;;;;7.13;3.67;;;;;;;2.71;57.93;101061.00;4994595;28;100994;-83
2023/02/27 03:48:05;;;;;;;7.97;3.73;;;;;;;2.65;58.02;101058.38;4980176;28;98209;-82
2023/02/27 03:50:32;;;;;;;9.73;4.50;;;;;;;2.75;57.93;101069.69;4974262;28;97404;-83
2023/02/27 03:52:58;;;;;;;7.90;4.13;;;;;;;2.63;57.90;101062.66;4973695;28;101905;-83
2023/02/27 03:55:32;;;;;;;8.60;3.90;;;;;;;2.46;57.38;101033.97;4988717;28;102031;-83
2023/02/27 03:57:58;;;;;;;8.63;4.13;;;;;;;2.66;57.97;101073.91;5018555;28;97129;-83
2023/02/27 04:00:25;;;;;;;8.20;3.10;;;;;;;2.51;58.19;101059.94;4975595;28;96939;-83
2023/02/27 04:02:52;;;;;;;9.63;3.77;;;;;;;2.50;57.89;101053.84;4985259;28;102133;-83
2023/02/27 04:05:21;;;;;;;10.23;3.80;;;;;;;2.49;58.34;101067.69;4991874;28;101734;-85
2023/02/27 04:08:19;;;;;;;9.53;3.63;;;;;;;2.64;57.77;101082.53;4993813;28;97449;-85
2023/02/27 04:11:22;;;;;;;10.33;4.50;;;;;;;2.63;57.89;101089.44;5008083;28;97828;-85
2023/02/27 04:14:13;;;;;;;6.32;2.85;;;;;;;2.65;57.95;101090.34;4991810;28;100473;-82
2023/02/27 04:16:49;;;;;;;6.40;3.67;;;;;;;2.66;57.78;101092.06;4965961;28;97470;-82
2023/02/27 04:19:59;;;;;;;12.00;4.63;;;;;;;2.51;58.19;101083.25;4973037;28;96872;-83
2023/02/27 04:22:44;;;;;;;7.63;3.10;;;;;;;2.58;58.14;101090.25;5004959;28;97904;-83
2023/02/27 04:25:15;;;;;;;11.03;3.80;;;;;;;2.65;58.78;101095.53;4976018;28;101604;-83
2023/02/27 04:27:59;;;;;;;10.63;4.22;;;;;;;2.58;58.26;101088.50;5009680;28;97906;-83
2023/02/27 04:30:47;;;;;;;7.43;3.23;;;;;;;2.48;58.02;101074.59;4990155;28;96865;-83
2023/02/27 04:33:18;;;;;;;7.57;3.50;;;;;;;2.61;58.51;101090.28;4971412;28;96916;-83
2023/02/27 04:36:06;;;;;;;7.93;3.85;;;;;;;2.61;58.62;101101.50;5002838;28;98066;-82
2023/02/27 04:38:38;;;;;;;7.97;3.17;;;;;;;2.58;58.00;101082.47;4968701;28;101333;-81
2023/02/27 04:41:20;;;;;;;7.40;3.20;;;;;;;2.63;58.29;101101.53;4989010;28;97194;-82
2023/02/27 04:43:46;;;;;;;9.15;3.67;;;;;;;2.62;58.39;101099.81;4993292;28;96951;-82
2023/02/27 04:46:14;;;;;;;6.43;3.30;;;;;;;2.63;58.43;101097.22;4989274;28;98050;-81
2023/02/27 04:49:06;;;;;;;8.80;3.50;;;;;;;2.57;58.44;101097.16;5002004;28;101663;-82
2023/02/27 04:51:46;;;;;;;6.80;3.57;;;;;;;2.57;58.57;101099.75;4988633;28;97159;-82
2023/02/27 04:54:15;;;;;;;6.83;3.33;;;;;;;2.52;58.66;101100.53;4987372;28;96872;-83
2023/02/27 04:56:46;;;;;;;10.77;4.30;;;;;;;2.53;58.51;101102.28;4992283;28;101088;-83
2023/02/27 04:59:16;;;;;;;9.18;3.58;;;;;;;2.42;58.75;101086.63;4991324;28;101381;-83
2023/02/27 05:02:28;;;;;;;10.03;3.10;;;;;;;2.46;59.11;101101.34;4972651;28;96917;-83
2023/02/27 05:04:59;;;;;;;12.47;3.50;;;;;;;2.51;59.04;101117.81;4986609;28;97112;-83
2023/02/27 05:07:47;;;;;;;8.90;3.63;;;;;;;2.57;58.83;101117.88;4975139;28;101293;-82
2023/02/27 05:10:20;;;;;;;9.50;3.73;;;;;;;2.42;59.04;101095.25;4989532;28;101500;-85
2023/02/27 05:13:13;;;;;;;8.53;3.07;;;;;;;2.50;59.37;101116.06;4991262;28;97238;-84
2023/02/27 05:15:54;;;;;;;10.80;3.83;;;;;;;2.56;58.96;101120.44;4993577;28;97398;-85
2023/02/27 05:18:21;;;;;;;10.03;4.30;;;;;;;2.52;58.55;101113.50;4976894;28;101525;-84
2023/02/27 05:21:08;;;;;;;8.00;3.93;;;;;;;2.54;59.58;101124.78;4987165;27;101666;-84
2023/02/27 05:23:54;;;;;;;6.17;3.40;;;;;;;2.49;59.08;101122.09;4993284;28;97489;-85
2023/02/27 05:26:30;;;;;;;6.83;3.23;;;;;;;2.35;59.86;101108.97;4978873;28;96761;-84
2023/02/27 05:29:04;;;;;;;11.57;4.33;;;;;;;2.54;59.46;101129.94;4977667;28;100870;-85
2023/02/27 05:31:44;;;;;;;9.03;4.00;;;;;;;2.47;59.63;101123.81;4976864;28;101175;-82
2023/02/27 05:34:15;;;;;;;7.73;3.50;;;;;;;2.46;59.95;101109.97;4975285;28;97516;-84
2023/02/27 05:36:59;;;;;;;12.03;3.47;;;;;;;2.33;60.03;101115.88;4995105;28;97042;-84
2023/02/27 05:39:28;;;;;;;10.60;3.80;;;;;;;2.40;60.17;101128.06;4995276;28;98574;-85
2023/02/27 05:42:08;;;;;;;7.17;3.00;;;;;;;2.47;60.00;101134.16;4991364;28;101442;-86
2023/02/27 05:44:37;;;;;;;6.23;3.40;;;;;;;2.47;59.56;101135.06;4991471;27;97479;-84
2023/02/27 05:47:16;;;;;;;8.43;3.50;;;;;;;2.52;59.85;101132.50;4991739;27;98159;-84
2023/02/27 05:49:50;;;;;;;9.00;3.90;;;;;;;2.53;59.40;101139.47;4997011;28;101224;-85
2023/02/27 05:52:20;;;;;;;10.07;3.90;;;;;;;2.30;60.07;101112.38;4999353;28;97844;-85
2023/02/27 05:55:07;;;;;;;10.17;3.87;;;;;;;2.52;59.67;101147.19;4996621;28;96727;-84
2023/02/27 05:57:36;;;;;;;8.30;4.00;;;;;;;2.54;59.87;101150.69;4995840;28;96754;-86
2023/02/27 06:00:14;;;;;;;10.30;3.90;;;;;;;2.43;59.66;101127.22;4991811;28;101499;-84
2023/02/27 06:02:40;;;;;;;9.63;4.40;;;;;;;2.41;59.66;101128.91;4986480;28;101814;-85
2023/02/27 06:05:07;;;;;;;7.87;3.90;;;;;;;2.49;59.66;101156.66;4975351;28;97195;-84
2023/02/27 06:07:34;;;;;;;8.63;4.03;;;;;;;2.52;59.64;101160.16;4991193;28;97843;-81
2023/02/27 06:10:00;;;;;;;10.73;4.20;;;;;;;2.53;59.73;101154.09;4986380;28;97887;-85
2023/02/27 06:12:25;;;;;;;9.67;3.93;;;;;;;2.52;59.87;101157.56;4993490;28;99890;-80
2023/02/27 06:14:51;;;;;;;10.90;3.87;;;;;;;2.48;60.47;101154.06;4971690;28;97080;-79
2023/02/27 06:17:16;;;;;;;8.97;4.43;;;;;;;2.49;60.13;101155.81;4974045;28;97157;-81
2023/02/27 06:19:42;;;;;;;8.13;3.93;;;;;;;2.51;59.82;101161.03;5017756;28;98492;-81
2023/02/27 06:22:09;;;;;;;10.13;3.80;;;;;;;2.36;60.00;101133.19;4977346;28;101362;-81
2023/02/27 06:24:35;;;;;;;8.77;4.70;;;;;;;2.49;59.77;101153.22;4996098;28;97855;-81
2023/02/27 06:27:00;;;;;;;8.93;3.93;;;;;;;2.47;60.16;101154.91;4990961;28;97331;-81
2023/02/27 06:29:25;;;;;;;9.80;4.73;;;;;;;2.52;60.15;101167.94;4987015;28;98308;-81
2023/02/27 06:31:51;;;;;;;14.23;5.50;;;;;;;2.50;60.32;101178.28;5009165;28;97370;-84
2023/02/27 06:34:17;;;;;;;8.40;4.30;;;;;;;2.47;59.95;101166.16;4992912;28;96840;-79
2023/02/27 06:36:42;;;;;;;11.30;4.40;;;;;;;2.48;60.44;101164.44;4992329;27;97095;-82
2023/02/27 06:39:08;;;;;;;9.23;4.30;;;;;;;2.53;60.15;101170.56;5003692;28;97854;-82
2023/02/27 06:41:33;;;;;;;7.87;3.63;;;;;;;2.57;60.09;101171.47;4991024;28;101478;-79
2023/02/27 06:43:59;;;;;;;7.57;3.73;;;;;;;2.55;60.16;101176.59;4992214;28;96750;-80
2023/02/27 06:46:25;;;;;;;6.57;3.70;;;;;;;2.54;60.76;101176.59;4988708;28;97175;-80
2023/02/27 06:48:50;;;;;;;8.33;4.23;;;;;;;2.45;60.09;101161.81;4988958;28;97864;-80
2023/02/27 06:51:16;;;;;;;8.23;4.30;;;;;;;2.56;60.56;101183.56;4991874;28;100313;-81
2023/02/27 06:53:41;;;;;;;10.50;4.50;;;;;;;2.60;60.47;101198.28;4988873;28;97128;-80
2023/02/27 06:56:07;;;;;;;10.87;4.10;;;;;;;2.60;60.44;101185.31;4990807;28;97427;-80
2023/02/27 06:58:32;;;;;;;10.33;4.03;;;;;;;2.58;60.44;101184.44;4988810;28;101412;-80
2023/02/27 07:00:59;;;;;;;8.47;3.70;;;;;;;2.48;59.86;101175.69;5008710;28;98086;-79
2023/02/27 07:03:25;;;;;;;7.87;3.57;;;;;;;2.55;59.72;101175.75;4972079;28;97315;-80
2023/02/27 07:05:51;;;;;;;7.37;3.57;;;;;;;2.67;59.69;101189.72;5009523;28;97419;-80
2023/02/27 07:08:16;;;;;;;6.00;3.13;;;;;;;2.68;59.86;101188.03;4991808;27;97993;-80
2023/02/27 07:10:45;;;;;;;7.37;3.90;;;;;;;2.69;60.25;101205.31;4996830;28;97823;-80
2023/02/27 07:13:12;;;;;;;8.40;3.60;;;;;;;2.75;60.36;101204.50;4988177;28;97558;-80
2023/02/27 07:15:38;;;;;;;9.00;3.43;;;;;;;2.74;60.06;101188.09;5009100;28;97256;-79
2023/02/27 07:18:04;;;;;;;8.27;3.73;;;;;;;2.54;59.61;101163.66;4989242;28;101696;-81
2023/02/27 07:20:30;;;;;;;7.27;3.90;;;;;;;2.85;59.57;101204.66;5008263;28;97411;-80
2023/02/27 07:22:55;;;;;;;11.60;4.17;;;;;;;2.74;59.54;101182.03;4994619;28;96858;-80
2023/02/27 07:25:21;;;;;;;7.93;4.23;;;;;;;2.90;59.90;101204.69;4989449;28;97161;-80
2023/02/27 07:27:48;;;;;;;13.60;4.77;;;;;;;2.88;59.79;101211.56;4989151;28;98297;-79
2023/02/27 07:30:14;;;;;;;11.20;5.37;;;;;;;2.85;60.38;101212.44;5001491;28;101573;-84
2023/02/27 07:32:40;;;;;;;11.73;5.60;;;;;;;2.87;59.89;101213.28;4974226;28;98397;-83
2023/02/27 07:35:06;;;;;;;12.90;6.47;;;;;;;2.90;59.72;101215.91;4978623;28;97070;-83
2023/02/27 07:37:32;;;;;;;17.90;8.87;;;;;;;2.93;60.05;101223.72;4992171;28;100732;-83
2023/02/27 07:39:58;;;;;;;16.17;8.23;;;;;;;2.79;59.83;101204.56;4997312;28;98013;-84
2023/02/27 07:42:23;;;;;;;12.10;6.60;;;;;;;2.80;59.66;101206.31;4989595;28;97996;-83
2023/02/27 07:44:49;;;;;;;9.63;5.20;;;;;;;2.95;59.81;101224.63;4974576;28;97435;-83
2023/02/27 07:47:16;;;;;;;7.97;4.00;;;;;;;2.95;59.42;101224.63;4969394;28;101520;-83
2023/02/27 07:49:42;;;;;;;8.17;3.87;;;;;;;2.88;59.81;101206.38;4991333;28;98291;-83
2023/02/27 07:52:08;;;;;;;10.27;4.10;;;;;;;3.00;59.60;101224.69;4991292;28;97285;-83
2023/02/27 07:54:35;;;;;;;9.77;3.83;;;;;;;3.00;59.49;101218.66;4991312;28;97116;-82
2023/02/27 07:57:01;;;;;;;10.20;4.00;;;;;;;2.90;60.11;101223.69;5009771;28;98161;-81
2023/02/27 07:59:26;;;;;;;11.40;4.37;;;;;;;2.93;59.70;101220.28;5019700;28;97908;-81
2023/02/27 08:01:52;;;;;;;10.47;4.20;;;;;;;2.86;60.00;101193.41;4988466;28;97549;-83
2023/02/27 08:04:18;;;;;;;6.83;3.50;;;;;;;3.11;59.65;101232.59;4978448;28;97523;-83
2023/02/27 08:06:43;;;;;;;7.77;3.60;;;;;;;3.13;59.57;101236.94;4985974;28;101632;-83
2023/02/27 08:09:09;;;;;;;8.63;3.50;;;;;;;3.05;59.46;101233.38;4973828;28;100667;-84
2023/02/27 08:11:35;;;;;;;6.13;3.60;;;;;;;2.97;59.24;101228.97;4990016;28;97359;-84
2023/02/27 08:14:00;;;;;;;7.23;3.37;;;;;;;2.87;59.33;101189.09;5007381;28;97613;-81
2023/02/27 08:16:26;;;;;;;7.13;3.57;;;;;;;3.07;59.23;101216.13;4970790;28;101205;-83
2023/02/27 08:18:52;;;;;;;10.37;4.03;;;;;;;3.21;59.46;101234.44;4978510;28;101122;-81
2023/02/27 08:21:17;;;;;;;9.17;4.10;;;;;;;3.28;59.41;101240.56;4986445;28;97122;-82
2023/02/27 08:23:43;;;;;;;5.97;3.23;;;;;;;3.24;59.12;101224.09;4976241;28;97064;-80
2023/02/27 08:26:08;;;;;;;7.13;4.07;;;;;;;3.31;59.01;101245.78;5007775;28;97959;-81
2023/02/27 08:28:34;;;;;;;8.77;3.87;;;;;;;3.26;59.46;101252.63;4988136;28;97829;-84
2023/02/27 08:30:59;;;;;;;7.30;3.30;;;;;;;3.18;59.83;101249.97;5005910;28;97369;-89
2023/02/27 08:33:25;;;;;;;9.30;3.97;;;;;;;3.30;59.43;101251.81;4995651;28;97070;-96
2023/02/27 08:35:53;;;;;;;6.70;3.83;;;;;;;3.25;59.39;101232.75;4970823;28;102020;-82
2023/02/27 08:38:19;;;;;;;8.93;3.63;;;;;;;3.32;59.25;101243.22;4988945;28;100980;-82
2023/02/27 08:40:44;;;;;;;10.53;4.30;;;;;;;3.39;59.43;101251.91;5008008;28;97949;-84
2023/02/27 08:43:10;;;;;;;10.00;4.70;;;;;;;3.43;58.92;101256.28;4972677;28;96846;-84
2023/02/27 08:45:35;;;;;;;7.60;4.03;;;;;;;3.48;59.23;101258.94;4984139;28;100717;-83
2023/02/27 08:48:01;;;;;;;10.20;4.40;;;;;;;3.53;59.18;101252.06;4984424;28;98011;-85
2023/02/27 08:50:26;;;;;;;5.37;3.03;;;;;;;3.69;58.47;101259.13;4990197;28;97268;-82
2023/02/27 08:52:52;;;;;;;12.80;3.80;;;;;;;3.76;58.66;101255.75;4986871;28;97344;-81
2023/02/27 08:55:17;;;;;;;10.43;4.10;;;;;;;3.70;58.64;101253.09;4971831;28;101848;-84
2023/02/27 08:57:43;;;;;;;5.90;3.77;;;;;;;3.77;58.54;101260.06;4986285;28;101787;-82
2023/02/27 09:00:10;;;;;;;7.07;3.57;;;;;;;3.77;58.46;101256.59;4990392;28;97482;-84
2023/02/27 09:02:39;;;;;;;9.90;3.87;;;;;;;3.81;58.69;101266.16;4970104;28;97118;-84
2023/02/27 09:05:05;;;;;;;5.23;2.80;;;;;;;3.70;58.13;101252.22;4987553;28;98701;-84
2023/02/27 09:07:33;;;;;;;6.40;3.07;;;;;;;3.81;58.34;101255.75;4975739;28;100671;-83
2023/02/27 09:09:59;;;;;;;6.23;3.20;;;;;;;3.91;58.00;101274.91;5006038;28;97224;-85
2023/02/27 09:12:24;;;;;;;5.50;3.03;;;;;;;3.92;57.85;101268.84;4984152;28;97225;-83
2023/02/27 09:14:50;;;;;;;9.37;2.90;;;;;;;4.10;57.47;101271.59;4975208;28;97506;-84
2023/02/27 09:17:15;;;;;;;10.30;3.07;;;;;;;4.06;57.13;101255.09;4993799;28;97994;-83
2023/02/27 09:19:41;;;;;;;7.27;3.90;;;;;;;4.19;57.51;101269.06;4989679;28;97269;-82
2023/02/27 09:22:07;;;;;;;8.70;3.90;;;;;;;4.06;57.93;101265.50;4989004;28;97472;-83
2023/02/27 09:24:32;;;;;;;6.20;2.93;;;;;;;4.18;57.79;101284.66;5005160;28;97404;-82
2023/02/27 09:26:58;;;;;;;5.57;2.70;;;;;;;4.27;57.35;101276.91;4971198;28;102073;-81
2023/02/27 09:29:24;;;;;;;6.20;3.17;;;;;;;4.21;56.81;101264.72;5000378;28;97670;-79
2023/02/27 09:31:50;;;;;;;8.63;2.93;;;;;;;4.29;56.87;101267.41;4974821;28;97894;-82
2023/02/27 09:34:16;;;;;;;5.67;2.70;;;;;;;4.33;57.40;101284.75;4967192;28;101421;-81
2023/02/27 09:36:41;;;;;;;9.47;3.53;;;;;;;4.34;56.82;101278.72;4962349;28;101461;-83
2023/02/27 09:39:08;;;;;;;6.00;2.73;;;;;;;4.34;56.95;101273.50;4988462;28;97765;-83
2023/02/27 09:42:05;;;;;;;7.20;2.67;;;;;;;4.46;56.26;101289.19;4974547;28;97122;-83
2023/02/27 09:44:46;;;;;;;6.83;2.87;;;;;;;4.67;54.68;101269.34;4988332;28;101314;-83
2023/02/27 09:47:37;;;;;;;8.60;3.50;;;;;;;5.04;54.48;101277.34;5001224;28;98000;-84
2023/02/27 09:50:06;;;;;;;6.20;2.90;;;;;;;5.14;54.86;101271.28;4990921;28;96999;-84
2023/02/27 09:52:34;;;;;;;13.40;4.20;;;;;;;5.22;54.61;101272.19;4990547;28;96830;-83
2023/02/27 09:55:00;;;;;;;9.77;3.10;;;;;;;5.20;55.37;101282.59;4990434;28;98519;-83
2023/02/27 09:57:31;;;;;;;5.47;2.80;;;;;;;5.25;55.17;101279.16;4982388;28;101356;-84
2023/02/27 10:00:03;;;;;;;6.53;2.87;;;;;;;5.28;55.49;101290.44;4988554;28;96751;-83
2023/02/27 10:02:50;;;;;;;8.60;3.20;;;;;;;5.26;55.20;101286.94;4995829;28;96776;-82
2023/02/27 10:05:19;;;;;;;7.50;2.97;;;;;;;5.27;55.26;101293.91;5002353;28;101782;-81
2023/02/27 10:08:16;;;;;;;8.53;3.60;;;;;;;5.36;55.26;101288.72;4985042;28;101323;-84
2023/02/27 10:10:47;;;;;;;12.77;3.60;;;;;;;5.40;54.93;101293.06;5006791;28;96939;-83
2023/02/27 10:13:31;;;;;;;6.70;3.40;;;;;;;5.42;54.95;101293.09;4987328;28;96825;-84
2023/02/27 10:15:58;;;;;;;5.27;2.67;;;;;;;5.30;53.48;101291.31;4990732;28;100943;-84
2023/02/27 10:18:32;;;;;;;8.63;2.73;;;;;;;5.27;53.55;101293.91;4971099;28;101580;-84
2023/02/27 10:21:12;;;;;;;5.03;2.70;;;;;;;5.36;53.39;101293.94;4960054;28;97201;-84
2023/02/27 10:23:58;;;;;;;8.10;3.10;;;;;;;5.48;53.22;101294.84;4957817;28;97128;-85
2023/02/27 10:26:30;;;;;;;7.57;3.13;;;;;;;5.51;53.23;101300.06;4977200;28;101518;-84
2023/02/27 10:28:57;;;;;;;9.90;3.50;;;;;;;5.40;51.53;101295.66;4990987;28;98394;-83
2023/02/27 10:31:27;;;;;;;9.07;3.17;;;;;;;5.40;52.17;101292.19;4987892;28;97235;-84
2023/02/27 10:33:54;;;;;;;8.20;3.17;;;;;;;5.45;52.61;101296.56;4982830;28;96952;-85
2023/02/27 10:36:21;;;;;;;5.17;3.00;;;;;;;5.49;51.78;101287.00;5003143;28;97221;-84
2023/02/27 10:38:51;;;;;;;8.63;2.50;;;;;;;5.56;52.20;101288.78;4983570;28;101263;-85
2023/02/27 10:41:18;;;;;;;7.97;2.83;;;;;;;5.61;52.14;101276.63;4966547;28;97508;-87
2023/02/27 10:43:43;;;;;;;7.97;2.80;;;;;;;5.87;51.78;101300.09;4987167;28;97487;-87
2023/02/27 10:46:17;;;;;;;10.20;2.30;;;;;;;5.94;50.83;101287.13;4974968;28;98423;-86
2023/02/27 10:48:43;;;;;;;6.20;2.77;;;;;;;5.92;50.99;101271.44;4972829;28;100062;-87
2023/02/27 10:51:22;;;;;;;7.88;2.85;;;;;;;5.90;50.81;101288.81;4984641;28;98003;-87
2023/02/27 10:53:48;;;;;;;9.50;3.17;;;;;;;5.86;51.36;101300.09;4969748;28;96885;-86
2023/02/27 10:56:18;;;;;;;6.90;2.23;;;;;;;5.80;50.24;101297.50;4997284;28;98478;-84
2023/02/27 10:58:44;;;;;;;10.73;2.60;;;;;;;5.78;49.46;101283.59;4985079;28;97966;-85
2023/02/27 11:01:10;;;;;;;9.07;3.23;;;;;;;5.84;49.83;101278.38;4971214;28;96914;-84
2023/02/27 11:03:39;;;;;;;10.63;4.35;;;;;;;5.97;50.41;101279.31;4999955;28;96771;-85
2023/02/27 11:06:05;;;;;;;8.80;3.87;;;;;;;6.11;51.04;101295.81;4988419;28;101353;-86
2023/02/27 11:08:33;;;;;;;13.40;4.97;;;;;;;5.91;51.08;101267.09;4988521;28;101331;-84
2023/02/27 11:11:02;;;;;;;11.23;3.03;;;;;;;6.01;50.08;101283.63;4984388;28;97203;-88
2023/02/27 11:13:48;;;;;;;6.13;2.75;;;;;;;6.02;49.78;101283.66;5012487;28;96914;-87
2023/02/27 11:16:21;;;;;;;5.75;2.65;;;;;;;5.88;48.15;101246.25;4980823;28;100368;-86
2023/02/27 11:18:48;;;;;;;12.18;2.88;;;;;;;6.04;48.01;101274.06;4962682;28;101561;-87
2023/02/27 11:21:14;;;;;;;11.30;2.87;;;;;;;6.09;47.09;101276.69;4971577;28;97119;-86
2023/02/27 11:23:57;;;;;;;6.73;3.27;;;;;;;6.21;48.36;101278.41;5001221;28;97186;-86
2023/02/27 11:26:28;;;;;;;4.15;2.00;;;;;;;6.27;47.59;101268.84;4990921;28;101415;-84
2023/02/27 11:29:02;;;;;;;6.67;2.43;;;;;;;6.10;47.25;101262.78;4993470;28;100219;-86
2023/02/27 11:31:30;;;;;;;8.05;2.10;;;;;;;5.98;47.45;101266.25;4990220;28;97123;-86
2023/02/27 11:33:57;;;;;;;6.50;2.73;;;;;;;5.81;46.36;101257.53;4987695;28;96872;-84
2023/02/27 11:36:40;;;;;;;7.33;2.57;;;;;;;5.77;46.65;101264.47;4971117;28;101497;-85
2023/02/27 11:39:06;;;;;;;9.53;2.93;;;;;;;5.72;48.55;101281.84;4994148;28;101658;-84
2023/02/27 11:41:33;;;;;;;7.15;2.55;;;;;;;5.81;48.27;101273.16;4973812;28;96844;-86
2023/02/27 11:44:01;;;;;;;25.67;3.67;;;;;;;5.79;48.51;101270.56;4982684;28;96970;-85
2023/02/27 11:46:27;;;;;;;19.70;3.20;;;;;;;5.77;49.59;101264.47;4989660;28;98575;-84
2023/02/27 11:48:55;;;;;;;8.43;3.20;;;;;;;5.81;49.55;101270.56;4982354;28;101620;-85
2023/02/27 11:51:58;;;;;;;13.43;3.00;;;;;;;5.84;49.33;101271.41;5003974;28;97664;-84
2023/02/27 11:54:41;;;;;;;15.10;2.80;;;;;;;5.81;49.47;101266.22;5007810;28;97986;-83
2023/02/27 11:57:37;;;;;;;6.22;2.40;;;;;;;5.73;47.65;101272.28;4977293;28;101661;-84
2023/02/27 12:00:25;;;;;;;20.80;2.90;;;;;;;5.77;47.67;101267.09;4983160;28;101435;-84
2023/02/27 12:02:56;;;;;;;9.67;1.70;;;;;;;5.70;45.79;101251.44;5006941;28;97143;-85